createdAt,value
2017-09-18T00:02:10.870Z,12.20
2017-09-18T00:04:41.376Z,12.40
2017-09-18T00:07:11.065Z,12.27
2017-09-18T00:09:40.767Z,11.87
2017-09-18T00:12:10.503Z,11.60
2017-09-18T00:14:40.227Z,10.93
2017-09-18T00:17:10.487Z,11.50
2017-09-18T00:19:41.084Z,12.73
2017-09-18T00:22:10.797Z,12.27
2017-09-18T00:24:40.530Z,11.70
2017-09-18T00:27:11.004Z,11.23
2017-09-18T00:29:40.802Z,10.87
2017-09-18T00:32:10.497Z,11.53
2017-09-18T00:34:40.685Z,11.23
2017-09-18T00:37:10.370Z,11.10
2017-09-18T00:39:40.088Z,11.70
2017-09-18T00:42:09.797Z,10.30
2017-09-18T00:44:39.492Z,10.50
2017-09-18T00:47:09.764Z,10.83
2017-09-18T00:49:40.227Z,11.60
2017-09-18T00:52:10.033Z,11.23
2017-09-18T00:54:39.972Z,10.67
2017-09-18T00:57:09.712Z,11.50
2017-09-18T00:59:40.418Z,11.47
2017-09-18T01:02:10.180Z,11.30
2017-09-18T01:04:39.898Z,11.30
2017-09-18T01:07:09.625Z,11.60
2017-09-18T01:09:39.345Z,12.20
2017-09-18T01:12:09.057Z,11.77
2017-09-18T01:14:38.767Z,12.67
2017-09-18T01:17:09.861Z,10.60
2017-09-18T01:19:40.335Z,12.70
2017-09-18T01:22:10.436Z,11.57
2017-09-18T01:24:40.147Z,13.53
2017-09-18T01:27:09.857Z,11.77
2017-09-18T01:29:39.539Z,13.00
2017-09-18T01:32:10.010Z,12.33
2017-09-18T01:34:40.287Z,12.27
2017-09-18T01:37:10.749Z,11.40
2017-09-18T01:39:40.454Z,12.70
2017-09-18T01:42:10.138Z,13.30
2017-09-18T01:44:40.639Z,12.97
2017-09-18T01:47:10.364Z,12.50
2017-09-18T01:49:40.835Z,12.60
2017-09-18T01:52:10.715Z,12.03
2017-09-18T01:54:41.206Z,12.13
2017-09-18T01:57:10.896Z,13.30
2017-09-18T01:59:40.582Z,12.40
2017-09-18T02:02:10.276Z,12.60
2017-09-18T02:04:41.213Z,13.17
2017-09-18T02:07:10.946Z,12.57
2017-09-18T02:09:41.627Z,12.47
2017-09-18T02:12:11.366Z,12.43
2017-09-18T02:14:41.835Z,12.83
2017-09-18T02:17:11.555Z,12.13
2017-09-18T02:19:41.259Z,12.17
2017-09-18T02:22:12.271Z,12.50
2017-09-18T02:24:41.962Z,13.20
2017-09-18T02:27:12.431Z,12.20
2017-09-18T02:29:42.134Z,12.67
2017-09-18T02:32:11.904Z,12.90
2017-09-18T02:34:43.777Z,12.20
2017-09-18T02:37:19.049Z,11.37
2017-09-18T02:39:49.272Z,12.40
2017-09-18T02:42:18.969Z,11.60
2017-09-18T02:44:48.667Z,12.43
2017-09-18T02:47:18.380Z,12.37
2017-09-18T02:49:48.078Z,11.50
2017-09-18T02:52:18.110Z,10.73
2017-09-18T02:54:47.829Z,10.50
2017-09-18T02:57:17.789Z,10.97
2017-09-18T02:59:47.516Z,11.10
2017-09-18T03:02:17.993Z,10.47
2017-09-18T03:04:47.737Z,11.10
2017-09-18T03:07:17.446Z,11.80
2017-09-18T03:09:47.583Z,10.67
2017-09-18T03:12:18.064Z,11.50
2017-09-18T03:14:47.789Z,11.60
2017-09-18T03:17:17.478Z,12.20
2017-09-18T03:19:47.201Z,13.70
2017-09-18T03:22:17.160Z,12.30
2017-09-18T03:24:47.623Z,13.93
2017-09-18T03:27:17.615Z,13.13
2017-09-18T03:29:47.337Z,14.07
2017-09-18T03:32:17.231Z,13.83
2017-09-18T03:34:47.762Z,15.13
2017-09-18T03:37:18.244Z,14.97
2017-09-18T03:39:49.266Z,16.93
2017-09-18T03:42:19.133Z,15.97
2017-09-18T03:44:49.113Z,18.33
2017-09-18T03:47:18.995Z,17.50
2017-09-18T03:49:48.884Z,17.97
2017-09-18T03:52:19.551Z,18.80
2017-09-18T03:54:49.449Z,19.10
2017-09-18T03:57:19.566Z,18.80
2017-09-18T03:59:49.483Z,19.83
2017-09-18T04:02:19.205Z,19.60
2017-09-18T04:04:48.890Z,18.47
2017-09-18T04:07:18.614Z,19.40
2017-09-18T04:09:48.788Z,20.10
2017-09-18T04:12:18.640Z,20.13
2017-09-18T04:14:48.748Z,19.10
2017-09-18T04:17:18.468Z,19.77
2017-09-18T04:19:48.206Z,19.30
2017-09-18T04:22:17.915Z,18.10
2017-09-18T04:24:47.613Z,18.33
2017-09-18T04:27:17.902Z,19.30
2017-09-18T04:29:48.371Z,20.10
2017-09-18T04:32:18.078Z,19.33
2017-09-18T04:34:47.785Z,20.17
2017-09-18T04:37:17.485Z,19.33
2017-09-18T04:39:47.302Z,18.53
2017-09-18T04:42:16.999Z,19.70
2017-09-18T04:44:47.228Z,20.73
2017-09-18T04:47:16.943Z,20.73
2017-09-18T04:49:46.638Z,22.90
2017-09-18T04:52:16.377Z,23.83
2017-09-18T04:54:46.088Z,23.53
2017-09-18T04:57:16.158Z,24.57
2017-09-18T04:59:46.658Z,23.47
2017-09-18T05:02:17.147Z,24.33
2017-09-18T05:04:46.843Z,24.20
2017-09-18T05:07:16.567Z,23.70
2017-09-18T05:09:46.279Z,23.50
2017-09-18T05:12:15.975Z,22.37
2017-09-18T05:14:46.138Z,20.97
2017-09-18T05:17:15.835Z,15.87
2017-09-18T05:19:45.548Z,17.10
2017-09-18T05:22:15.242Z,15.90
2017-09-18T05:24:44.957Z,15.87
2017-09-18T05:27:14.653Z,16.50
2017-09-18T05:29:44.364Z,18.80
2017-09-18T05:32:14.450Z,18.10
2017-09-18T05:34:45.113Z,20.10
2017-09-18T05:37:14.813Z,17.63
2017-09-18T05:39:44.501Z,15.57
2017-09-18T05:42:14.979Z,15.00
2017-09-18T05:44:45.171Z,14.53
2017-09-18T05:47:14.881Z,12.10
2017-09-18T05:49:44.871Z,12.00
2017-09-18T05:52:15.349Z,11.87
2017-09-18T05:54:45.059Z,12.33
2017-09-18T05:57:14.793Z,11.93
2017-09-18T05:59:44.533Z,11.70
2017-09-18T06:02:14.631Z,12.30
2017-09-18T06:04:44.325Z,13.53
2017-09-18T06:07:14.236Z,12.27
2017-09-18T06:09:43.992Z,12.47
2017-09-18T06:12:14.471Z,13.37
2017-09-18T06:14:44.200Z,12.97
2017-09-18T06:17:13.908Z,14.80
2017-09-18T06:19:44.062Z,14.40
2017-09-18T06:22:13.788Z,15.50
2017-09-18T06:24:43.477Z,13.07
2017-09-18T06:27:13.923Z,12.30
2017-09-18T06:29:43.650Z,14.47
2017-09-18T06:32:13.742Z,14.30
2017-09-18T06:34:43.536Z,13.80
2017-09-18T06:37:14.351Z,15.60
2017-09-18T06:39:44.220Z,15.00
2017-09-18T06:42:13.898Z,15.10
2017-09-18T06:44:44.400Z,16.40
2017-09-18T06:47:14.112Z,15.73
2017-09-18T06:49:44.992Z,16.33
2017-09-18T06:52:14.706Z,15.33
2017-09-18T06:54:44.392Z,16.20
2017-09-18T06:57:14.883Z,14.83
2017-09-18T06:59:45.781Z,15.23
2017-09-18T07:02:16.878Z,13.97
2017-09-18T07:04:46.625Z,15.13
2017-09-18T07:07:16.636Z,15.77
2017-09-18T07:09:53.452Z,16.10
2017-09-18T07:12:23.172Z,16.50
2017-09-18T07:14:52.939Z,16.90
2017-09-18T07:17:22.700Z,16.50
2017-09-18T07:19:52.971Z,13.70
2017-09-18T07:22:22.766Z,14.57
2017-09-18T07:24:53.239Z,13.70
2017-09-18T07:27:22.974Z,13.10
2017-09-18T07:29:52.710Z,14.47
2017-09-18T07:32:23.178Z,13.23
2017-09-18T07:34:52.906Z,14.37
2017-09-18T07:37:22.992Z,17.30
2017-09-18T07:39:52.749Z,17.20
2017-09-18T07:42:22.457Z,18.27
2017-09-18T07:44:52.193Z,15.70
2017-09-18T07:47:23.517Z,16.30
2017-09-18T07:49:53.591Z,17.00
2017-09-18T07:52:23.399Z,17.10
2017-09-18T07:54:53.394Z,16.87
2017-09-18T07:57:23.870Z,18.53
2017-09-18T07:59:53.612Z,18.03
2017-09-18T08:02:23.580Z,17.20
2017-09-18T08:04:53.461Z,16.83
2017-09-18T08:07:24.292Z,17.03
2017-09-18T08:09:54.765Z,17.90
2017-09-18T08:12:24.462Z,17.87
2017-09-18T08:14:54.262Z,17.13
2017-09-18T08:17:23.958Z,17.23
2017-09-18T08:19:54.432Z,15.60
2017-09-18T08:22:24.128Z,8.70
2017-09-18T08:24:54.116Z,10.80
2017-09-18T08:27:24.608Z,9.90
2017-09-18T08:29:54.519Z,8.70
2017-09-18T08:32:24.239Z,8.90
2017-09-18T08:34:53.980Z,7.90
2017-09-18T08:37:24.772Z,7.30
2017-09-18T08:39:54.499Z,8.27
2017-09-18T08:42:24.488Z,8.73
2017-09-18T08:44:54.189Z,8.23
2017-09-18T08:47:23.865Z,8.40
2017-09-18T08:49:54.315Z,8.83
2017-09-18T08:52:24.030Z,9.53
2017-09-18T08:54:54.942Z,9.50
2017-09-18T08:57:24.674Z,9.93
2017-09-18T08:59:54.354Z,9.63
2017-09-18T09:02:24.824Z,9.67
2017-09-18T09:04:54.533Z,10.13
2017-09-18T09:07:24.242Z,10.30
2017-09-18T09:09:53.944Z,9.63
2017-09-18T09:12:24.300Z,10.77
2017-09-18T09:14:54.015Z,10.67
2017-09-18T09:17:23.749Z,10.43
2017-09-18T09:19:54.232Z,9.70
2017-09-18T09:22:23.965Z,10.07
2017-09-18T09:24:54.296Z,10.90
2017-09-18T09:27:24.131Z,10.90
2017-09-18T09:29:55.376Z,10.93
2017-09-18T09:32:25.078Z,11.40
2017-09-18T09:34:55.566Z,11.57
2017-09-18T09:37:25.287Z,11.63
2017-09-18T09:39:55.023Z,11.17
2017-09-18T09:42:26.170Z,12.17
2017-09-18T09:44:56.644Z,11.50
2017-09-18T09:47:26.347Z,11.20
2017-09-18T09:49:56.167Z,11.37
2017-09-18T09:52:25.883Z,10.63
2017-09-18T09:54:55.875Z,11.43
2017-09-18T09:57:25.579Z,11.27
2017-09-18T09:59:55.673Z,11.80
2017-09-18T10:02:26.339Z,12.20
2017-09-18T10:04:56.081Z,10.27
2017-09-18T10:07:25.758Z,10.00
2017-09-18T10:09:55.465Z,8.73
2017-09-18T10:12:25.767Z,9.17
2017-09-18T10:14:55.498Z,8.13
2017-09-18T10:17:25.687Z,7.67
2017-09-18T10:19:56.132Z,7.77
2017-09-18T10:22:25.809Z,7.27
2017-09-18T10:24:55.551Z,7.10
2017-09-18T10:27:25.258Z,8.77
2017-09-18T10:29:55.316Z,8.17
2017-09-18T10:32:25.001Z,7.90
2017-09-18T10:34:54.692Z,8.30
2017-09-18T10:37:25.141Z,9.33
2017-09-18T10:39:54.840Z,8.73
2017-09-18T10:42:24.935Z,7.73
2017-09-18T10:44:55.408Z,7.30
2017-09-18T10:47:25.577Z,7.57
2017-09-18T10:49:56.049Z,8.10
2017-09-18T10:52:25.757Z,8.43
2017-09-18T10:54:55.479Z,7.73
2017-09-18T10:57:25.153Z,7.03
2017-09-18T10:59:55.345Z,9.47
2017-09-18T11:02:25.068Z,9.83
2017-09-18T11:04:55.843Z,10.30
2017-09-18T11:07:25.518Z,9.60
2017-09-18T11:09:55.970Z,7.53
2017-09-18T11:12:25.689Z,9.07
2017-09-18T11:14:55.389Z,7.87
2017-09-18T11:17:25.597Z,8.33
2017-09-18T11:19:55.307Z,8.00
2017-09-18T11:22:24.985Z,7.10
2017-09-18T11:24:54.684Z,8.03
2017-09-18T11:27:24.383Z,8.53
2017-09-18T11:29:54.688Z,8.97
2017-09-18T11:32:24.464Z,9.67
2017-09-18T11:34:54.497Z,8.47
2017-09-18T11:37:24.190Z,8.50
2017-09-18T11:39:55.609Z,8.80
2017-09-18T11:42:25.313Z,9.37
2017-09-18T11:44:55.024Z,9.03
2017-09-18T11:47:25.276Z,7.60
2017-09-18T11:49:55.749Z,8.17
2017-09-18T11:52:25.474Z,8.83
2017-09-18T11:54:55.192Z,9.27
2017-09-18T11:57:24.881Z,9.53
2017-09-18T11:59:55.584Z,10.30
2017-09-18T12:02:25.327Z,11.80
2017-09-18T12:04:55.611Z,11.60
2017-09-18T12:07:25.322Z,13.30
2017-09-18T12:09:55.813Z,11.43
2017-09-18T12:12:25.528Z,12.70
2017-09-18T12:14:55.265Z,12.23
2017-09-18T12:17:25.390Z,12.90
2017-09-18T12:19:55.124Z,11.50
2017-09-18T12:22:26.146Z,12.87
2017-09-18T12:24:55.889Z,12.73
2017-09-18T12:27:25.595Z,14.20
2017-09-18T12:29:55.332Z,14.37
2017-09-18T12:32:25.058Z,12.90
2017-09-18T12:34:55.816Z,14.23
2017-09-18T12:37:25.526Z,13.13
2017-09-18T12:39:55.469Z,14.60
2017-09-18T12:42:25.222Z,15.53
2017-09-18T12:44:55.759Z,15.00
2017-09-18T12:47:26.264Z,14.30
2017-09-18T12:49:55.966Z,13.80
2017-09-18T12:52:27.003Z,14.60
2017-09-18T12:54:56.686Z,15.60
2017-09-18T12:57:26.420Z,16.87
2017-09-18T12:59:56.132Z,16.30
2017-09-18T13:02:25.817Z,15.57
2017-09-18T13:04:56.014Z,14.70
2017-09-18T13:07:25.738Z,16.33
2017-09-18T13:09:55.929Z,17.30
2017-09-18T13:12:26.389Z,17.37
2017-09-18T13:14:56.106Z,15.70
2017-09-18T13:17:25.820Z,16.37
2017-09-18T13:19:55.522Z,16.53
2017-09-18T13:22:25.223Z,15.90
2017-09-18T13:24:54.967Z,14.90
2017-09-18T13:27:24.661Z,16.23
2017-09-18T13:29:54.345Z,16.63
2017-09-18T13:32:24.144Z,16.47
2017-09-18T13:34:54.680Z,17.07
2017-09-18T13:37:25.188Z,16.10
2017-09-18T13:39:55.663Z,15.60
2017-09-18T13:42:25.391Z,15.83
2017-09-18T13:44:55.152Z,16.47
2017-09-18T13:47:25.637Z,16.90
2017-09-18T13:49:55.360Z,16.77
2017-09-18T13:52:25.078Z,18.97
2017-09-18T13:54:54.757Z,17.40
2017-09-18T13:57:24.456Z,19.30
2017-09-18T13:59:54.162Z,19.20
2017-09-18T14:02:24.004Z,18.93
2017-09-18T14:04:53.688Z,19.67
2017-09-18T14:07:23.444Z,19.07
2017-09-18T14:09:54.492Z,19.13
2017-09-18T14:12:24.983Z,17.53
2017-09-18T14:14:54.696Z,18.07
2017-09-18T14:17:24.443Z,19.50
2017-09-18T14:20:00.558Z,18.47
2017-09-18T14:22:30.825Z,18.17
2017-09-18T14:25:01.292Z,18.13
2017-09-18T14:27:31.504Z,18.33
2017-09-18T14:30:01.192Z,18.07
2017-09-18T14:32:31.683Z,18.73
2017-09-18T14:35:01.419Z,17.50
2017-09-18T14:37:31.889Z,19.90
2017-09-18T14:40:02.170Z,19.80
2017-09-18T14:42:32.639Z,20.20
2017-09-18T14:45:02.635Z,21.40
2017-09-18T14:47:32.356Z,19.17
2017-09-18T14:50:02.050Z,19.67
2017-09-18T14:52:31.772Z,18.40
2017-09-18T14:55:01.475Z,18.67
2017-09-18T14:57:31.585Z,21.17
2017-09-18T15:00:01.281Z,20.70
2017-09-18T15:02:31.748Z,20.60
2017-09-18T15:05:01.436Z,20.03
2017-09-18T15:07:31.156Z,20.57
2017-09-18T15:10:01.120Z,21.30
2017-09-18T15:12:30.859Z,20.93
2017-09-18T15:15:01.800Z,22.00
2017-09-18T15:17:32.244Z,20.47
2017-09-18T15:20:01.975Z,21.30
2017-09-18T15:22:31.678Z,21.17
2017-09-18T15:25:01.408Z,23.97
2017-09-18T15:27:31.580Z,21.00
2017-09-18T15:30:01.308Z,23.60
2017-09-18T15:32:31.166Z,21.50
2017-09-18T15:35:01.027Z,22.30
2017-09-18T15:37:30.737Z,20.17
2017-09-18T15:40:00.454Z,18.60
2017-09-18T15:42:30.187Z,15.17
2017-09-18T15:45:00.289Z,15.90
2017-09-18T15:47:29.990Z,13.10
2017-09-18T15:49:59.685Z,15.43
2017-09-18T15:52:30.152Z,13.83
2017-09-18T15:54:59.892Z,13.03
2017-09-18T15:57:30.054Z,13.77
2017-09-18T15:59:59.753Z,12.87
2017-09-18T16:02:30.783Z,11.70
2017-09-18T16:05:01.254Z,10.63
2017-09-18T16:07:31.035Z,11.20
2017-09-18T16:10:01.704Z,9.70
2017-09-18T16:12:31.404Z,9.60
2017-09-18T16:15:02.175Z,8.20
2017-09-18T16:17:31.864Z,7.70
2017-09-18T16:20:01.577Z,8.50
2017-09-18T16:22:31.267Z,7.83
2017-09-18T16:25:00.985Z,8.90
2017-09-18T16:27:30.715Z,6.47
2017-09-18T16:30:01.316Z,6.87
2017-09-18T16:32:32.953Z,6.63
2017-09-18T16:35:03.685Z,6.37
2017-09-18T16:37:33.372Z,5.50
2017-09-18T16:40:03.878Z,5.43
2017-09-18T16:42:33.560Z,5.13
2017-09-18T16:45:03.716Z,3.90
2017-09-18T16:47:33.448Z,2.83
2017-09-18T16:50:05.131Z,3.10
2017-09-18T16:52:34.838Z,3.73
2017-09-18T16:55:04.553Z,2.33
2017-09-18T16:57:34.268Z,2.90
2017-09-18T17:00:04.016Z,2.60
2017-09-18T17:02:34.059Z,2.30
2017-09-18T17:05:04.523Z,2.70
2017-09-18T17:07:34.208Z,3.53
2017-09-18T17:10:03.934Z,2.73
2017-09-18T17:12:33.640Z,2.33
2017-09-18T17:15:05.197Z,2.73
2017-09-18T17:17:34.904Z,2.57
2017-09-18T17:20:05.077Z,2.70
2017-09-18T17:22:34.746Z,3.10
2017-09-18T17:25:04.472Z,2.70
2017-09-18T17:27:34.171Z,2.27
2017-09-18T17:30:03.880Z,2.10
2017-09-18T17:32:33.772Z,2.10
2017-09-18T17:35:04.313Z,2.23
2017-09-18T17:37:34.859Z,2.77
2017-09-18T17:40:04.560Z,2.57
2017-09-18T17:42:34.265Z,2.67
2017-09-18T17:45:03.973Z,2.50
2017-09-18T17:47:33.668Z,2.30
2017-09-18T17:50:03.734Z,2.43
2017-09-18T17:52:33.469Z,1.63
2017-09-18T17:55:03.927Z,2.70
2017-09-18T17:57:33.627Z,3.13
2017-09-18T18:00:03.365Z,3.50
2017-09-18T18:02:34.250Z,2.87
2017-09-18T18:05:04.719Z,3.33
2017-09-18T18:07:34.908Z,3.40
2017-09-18T18:10:05.465Z,3.00
2017-09-18T18:12:35.173Z,3.53
2017-09-18T18:15:04.931Z,4.10
2017-09-18T18:17:34.627Z,3.17
2017-09-18T18:20:04.687Z,2.50
2017-09-18T18:22:35.166Z,3.10
2017-09-18T18:25:05.040Z,3.20
2017-09-18T18:27:34.748Z,3.50
2017-09-18T18:30:04.457Z,2.93
2017-09-18T18:32:34.164Z,3.10
2017-09-18T18:35:04.752Z,3.50
2017-09-18T18:37:35.105Z,3.47
2017-09-18T18:40:05.741Z,3.93
2017-09-18T18:42:36.203Z,2.93
2017-09-18T18:45:05.906Z,3.00
2017-09-18T18:47:35.605Z,3.20
2017-09-18T18:50:06.627Z,3.60
2017-09-18T18:52:37.100Z,2.83
2017-09-18T18:55:07.183Z,3.13
2017-09-18T18:57:36.908Z,3.50
2017-09-18T19:00:06.618Z,3.27
2017-09-18T19:02:36.331Z,4.33
2017-09-18T19:05:06.055Z,3.37
2017-09-18T19:07:35.823Z,3.27
2017-09-18T19:10:06.296Z,3.40
2017-09-18T19:12:36.083Z,3.73
2017-09-18T19:15:06.572Z,3.60
2017-09-18T19:17:36.291Z,3.77
2017-09-18T19:20:06.767Z,3.53
2017-09-18T19:22:36.646Z,3.80
2017-09-18T19:25:07.404Z,4.10
2017-09-18T19:27:37.113Z,4.17
2017-09-18T19:30:06.812Z,3.83
2017-09-18T19:32:36.498Z,4.57
2017-09-18T19:35:06.962Z,4.10
2017-09-18T19:37:37.150Z,3.87
2017-09-18T19:40:07.602Z,3.73
2017-09-18T19:42:37.700Z,4.03
2017-09-18T19:45:08.185Z,4.33
2017-09-18T19:47:37.893Z,3.83
2017-09-18T19:50:07.582Z,3.40
2017-09-18T19:52:37.280Z,3.47
2017-09-18T19:55:08.308Z,4.07
2017-09-18T19:57:38.013Z,3.80
2017-09-18T20:00:07.743Z,4.30
2017-09-18T20:02:37.417Z,3.80
2017-09-18T20:05:07.125Z,3.97
2017-09-18T20:07:38.883Z,4.27
2017-09-18T20:10:09.346Z,4.20
2017-09-18T20:12:40.529Z,4.70
2017-09-18T20:15:11.011Z,4.87
2017-09-18T20:17:40.928Z,5.37
2017-09-18T20:20:10.644Z,4.63
2017-09-18T20:22:40.343Z,4.53
2017-09-18T20:25:10.742Z,3.87
2017-09-18T20:27:41.184Z,4.53
2017-09-18T20:30:11.308Z,5.30
2017-09-18T20:32:40.992Z,5.20
2017-09-18T20:35:11.466Z,4.80
2017-09-18T20:37:41.188Z,4.97
2017-09-18T20:40:10.926Z,4.40
2017-09-18T20:42:42.760Z,4.90
2017-09-18T20:45:12.470Z,5.37
2017-09-18T20:47:42.191Z,5.03
2017-09-18T20:50:11.868Z,5.00
2017-09-18T20:52:41.561Z,4.70
2017-09-18T20:55:11.568Z,5.30
2017-09-18T20:57:42.022Z,5.30
2017-09-18T21:00:12.143Z,4.83
2017-09-18T21:02:41.849Z,5.03
2017-09-18T21:05:11.552Z,4.93
2017-09-18T21:07:41.277Z,5.87
2017-09-18T21:10:10.978Z,5.00
2017-09-18T21:12:41.787Z,5.00
2017-09-18T21:15:12.247Z,5.00
2017-09-18T21:17:42.035Z,5.20
2017-09-18T21:20:11.757Z,5.53
2017-09-18T21:22:41.486Z,4.97
2017-09-18T21:25:11.192Z,5.23
2017-09-18T21:27:40.882Z,5.33
2017-09-18T21:30:11.280Z,5.30
2017-09-18T21:32:41.735Z,5.30
2017-09-18T21:35:11.459Z,5.00
2017-09-18T21:37:41.178Z,4.93
2017-09-18T21:40:10.879Z,4.30
2017-09-18T21:42:41.271Z,4.87
2017-09-18T21:45:11.843Z,5.77
2017-09-18T21:47:42.226Z,5.50
2017-09-18T21:50:12.708Z,4.73
2017-09-18T21:52:43.234Z,5.10
2017-09-18T21:55:12.916Z,4.63
2017-09-18T21:57:42.628Z,5.57
2017-09-18T22:00:12.854Z,5.27
2017-09-18T22:02:42.536Z,4.53
2017-09-18T22:05:13.458Z,4.57
2017-09-18T22:07:43.917Z,5.03
2017-09-18T22:10:14.586Z,4.53
2017-09-18T22:12:44.283Z,4.73
2017-09-18T22:15:13.986Z,4.37
2017-09-18T22:17:44.166Z,5.40
2017-09-18T22:20:14.695Z,4.50
2017-09-18T22:22:45.164Z,4.53
2017-09-18T22:25:14.874Z,4.50
2017-09-18T22:27:44.788Z,4.33
2017-09-18T22:30:14.968Z,4.23
2017-09-18T22:32:45.434Z,4.50
2017-09-18T22:35:15.427Z,4.47
2017-09-18T22:37:45.131Z,4.23
2017-09-18T22:40:15.012Z,4.43
2017-09-18T22:42:45.571Z,5.17
2017-09-18T22:45:15.276Z,4.03
2017-09-18T22:47:46.211Z,4.33
2017-09-18T22:50:16.763Z,4.00
2017-09-18T22:52:46.446Z,4.37
2017-09-18T22:55:16.892Z,4.10
2017-09-18T22:57:46.591Z,4.47
2017-09-18T23:00:16.616Z,4.30
2017-09-18T23:02:46.328Z,3.97
2017-09-18T23:05:16.445Z,4.73
2017-09-18T23:07:46.174Z,6.30
2017-09-18T23:10:15.867Z,6.10
2017-09-18T23:12:45.568Z,6.23
2017-09-18T23:15:16.121Z,5.40
2017-09-18T23:17:46.497Z,5.63
2017-09-18T23:20:16.207Z,5.37
2017-09-18T23:22:47.057Z,5.33
2017-09-18T23:25:17.521Z,4.90
2017-09-18T23:27:47.204Z,5.40
2017-09-18T23:30:17.680Z,5.17
2017-09-18T23:32:47.399Z,5.37
2017-09-18T23:35:17.561Z,5.63
2017-09-18T23:37:48.048Z,6.30
2017-09-18T23:40:17.753Z,5.70
2017-09-18T23:42:47.442Z,5.20
2017-09-18T23:45:17.142Z,4.63
2017-09-18T23:47:47.340Z,4.40
2017-09-18T23:50:17.819Z,4.77
2017-09-18T23:52:47.875Z,4.43
2017-09-18T23:55:18.338Z,4.30
2017-09-18T23:57:48.039Z,5.10
